Time;durP1;ratioP1;P1;durP2;ratioP2;P2;SDS_P1;SDS_P2;PMS_P1;PMS_P2;Temp;Humidity;BMP_temperature;BMP_pressure;BME280_temperature;BME280_humidity;BME280_pressure;Samples;Min_cycle;Max_cycle;Signal;HPM_P1;HPM_P2
2022/03/12 00:00:29;;;;;;;24.23;3.08;;;;;;;;;;4999362;28;20046;-58
2022/03/12 00:02:56;;;;;;;13.02;3.17;;;;;;;;;;5000190;28;20464;-55
2022/03/12 00:05:23;;;;;;;15.02;3.13;;;;;;;;;;5000308;28;20134;-57
2022/03/12 00:07:51;;;;;;;11.45;3.47;;;;;;;;;;5000020;28;21834;-57
2022/03/12 00:10:18;;;;;;;7.45;2.78;;;;;;;;;;5000967;28;20038;-57
2022/03/12 00:12:44;;;;;;;12.75;3.30;;;;;;;;;;5000984;28;20570;-58
2022/03/12 00:15:12;;;;;;;11.82;2.83;;;;;;;;;;4997561;28;20442;-58
2022/03/12 00:17:44;;;;;;;13.55;3.20;;;;;;;;;;4997965;28;21026;-57
2022/03/12 00:20:12;;;;;;;13.15;4.00;;;;;;;;;;5000924;28;20053;-57
2022/03/12 00:22:47;;;;;;;25.73;3.45;;;;;;;;;;4997726;28;20065;-58
2022/03/12 00:25:13;;;;;;;12.10;3.85;;;;;;;;;;5000601;28;20563;-58
2022/03/12 00:27:41;;;;;;;16.33;4.18;;;;;;;;;;4998486;28;20184;-58
2022/03/12 00:30:10;;;;;;;10.77;3.28;;;;;;;;;;4999969;28;20030;-57
2022/03/12 00:32:37;;;;;;;9.98;3.22;;;;;;;;;;4997019;28;20153;-58
2022/03/12 00:35:06;;;;;;;9.75;3.28;;;;;;;;;;4997400;28;20828;-58
2022/03/12 00:37:32;;;;;;;14.40;3.92;;;;;;;;;;5015736;28;20046;-57
2022/03/12 00:39:58;;;;;;;15.80;4.25;;;;;;;;;;4998443;28;20040;-55
2022/03/12 00:42:24;;;;;;;28.60;4.45;;;;;;;;;;4999989;28;20066;-57
2022/03/12 00:44:49;;;;;;;13.52;3.85;;;;;;;;;;4999835;28;20410;-57
2022/03/12 00:47:15;;;;;;;11.05;3.83;;;;;;;;;;4998365;28;20149;-58
2022/03/12 00:49:42;;;;;;;25.15;4.90;;;;;;;;;;4998267;28;20072;-58
2022/03/12 00:52:08;;;;;;;14.70;3.67;;;;;;;;;;5029795;28;20049;-57
2022/03/12 00:54:36;;;;;;;12.40;2.90;;;;;;;;;;4997877;28;20400;-57
2022/03/12 00:57:02;;;;;;;13.35;2.72;;;;;;;;;;4999423;28;20045;-57
2022/03/12 00:59:28;;;;;;;10.98;2.97;;;;;;;;;;5033618;28;20042;-57
2022/03/12 01:01:54;;;;;;;8.52;2.80;;;;;;;;;;5000309;28;20060;-56
2022/03/12 01:04:20;;;;;;;7.85;2.85;;;;;;;;;;4995340;28;20498;-56
2022/03/12 01:06:47;;;;;;;11.85;2.90;;;;;;;;;;4998955;28;20603;-57
2022/03/12 01:09:12;;;;;;;9.00;4.28;;;;;;;;;;4989260;28;20141;-58
2022/03/12 01:11:39;;;;;;;17.08;5.10;;;;;;;;;;5000209;28;20043;-59
2022/03/12 01:14:06;;;;;;;8.20;3.78;;;;;;;;;;5013352;28;20397;-58
2022/03/12 01:16:33;;;;;;;11.95;2.63;;;;;;;;;;5000680;28;20124;-58
2022/03/12 01:18:58;;;;;;;4.00;1.17;;;;;;;;;;4997230;28;20567;-58
2022/03/12 01:21:24;;;;;;;3.58;1.30;;;;;;;;;;4998934;28;20038;-58
2022/03/12 01:23:51;;;;;;;12.57;1.25;;;;;;;;;;5000807;28;20045;-57
2022/03/12 01:26:18;;;;;;;4.65;1.20;;;;;;;;;;5001181;28;20593;-56
2022/03/12 01:28:44;;;;;;;5.15;1.20;;;;;;;;;;5008822;28;20049;-56
2022/03/12 01:31:10;;;;;;;2.45;0.77;;;;;;;;;;5008078;28;20039;-54
2022/03/12 01:33:36;;;;;;;8.98;1.63;;;;;;;;;;4997718;28;20077;-57
2022/03/12 01:36:02;;;;;;;9.10;1.50;;;;;;;;;;5000528;28;20145;-56
2022/03/12 01:38:48;;;;;;;4.72;1.40;;;;;;;;;;5000204;28;20049;-58
2022/03/12 01:41:15;;;;;;;4.13;1.45;;;;;;;;;;4999111;28;20130;-57
2022/03/12 01:43:43;;;;;;;7.78;1.63;;;;;;;;;;4996954;28;20042;-57
2022/03/12 01:46:10;;;;;;;3.15;0.73;;;;;;;;;;4998301;28;20049;-57
2022/03/12 01:48:41;;;;;;;2.53;0.80;;;;;;;;;;4997021;28;20557;-58
2022/03/12 01:51:07;;;;;;;2.80;0.60;;;;;;;;;;4998122;28;20065;-55
2022/03/12 01:53:33;;;;;;;2.20;0.80;;;;;;;;;;4995494;28;20120;-57
2022/03/12 01:55:59;;;;;;;5.50;0.98;;;;;;;;;;5000231;28;20042;-55
2022/03/12 01:58:24;;;;;;;5.65;0.90;;;;;;;;;;4998396;28;20053;-57
2022/03/12 02:00:51;;;;;;;2.38;0.70;;;;;;;;;;4997795;28;20131;-58
2022/03/12 02:03:23;;;;;;;2.40;0.70;;;;;;;;;;4996259;28;20046;-58
2022/03/12 02:05:50;;;;;;;2.30;0.77;;;;;;;;;;4994858;28;20056;-57
2022/03/12 02:08:16;;;;;;;2.30;0.70;;;;;;;;;;4996951;28;20033;-59
2022/03/12 02:10:43;;;;;;;2.75;0.70;;;;;;;;;;4997633;28;20050;-58
2022/03/12 02:13:10;;;;;;;2.33;0.75;;;;;;;;;;4999197;28;20651;-58
2022/03/12 02:15:36;;;;;;;3.05;0.60;;;;;;;;;;4994534;28;20041;-55
2022/03/12 02:18:02;;;;;;;2.88;0.73;;;;;;;;;;4997533;28;20400;-57
2022/03/12 02:20:29;;;;;;;1.98;0.60;;;;;;;;;;4997978;28;20046;-57
2022/03/12 02:22:55;;;;;;;1.63;0.52;;;;;;;;;;4998692;28;20107;-56
2022/03/12 02:25:31;;;;;;;3.65;0.70;;;;;;;;;;4998938;28;20538;-56
2022/03/12 02:27:58;;;;;;;2.75;0.70;;;;;;;;;;4999489;28;20164;-57
2022/03/12 02:30:47;;;;;;;3.03;0.60;;;;;;;;;;4999074;28;20519;-54
2022/03/12 02:33:13;;;;;;;1.30;0.57;;;;;;;;;;4999578;28;20125;-58
2022/03/12 02:35:40;;;;;;;2.50;0.60;;;;;;;;;;4995979;28;20104;-58
2022/03/12 02:38:09;;;;;;;6.78;0.80;;;;;;;;;;4998682;28;20144;-58
2022/03/12 02:40:35;;;;;;;1.70;0.60;;;;;;;;;;4998546;28;20033;-58
2022/03/12 02:43:01;;;;;;;4.70;0.80;;;;;;;;;;4997155;28;20425;-58
2022/03/12 02:45:29;;;;;;;1.38;0.50;;;;;;;;;;4998965;28;20148;-57
2022/03/12 02:47:55;;;;;;;8.48;0.77;;;;;;;;;;4999794;28;20041;-57
2022/03/12 02:50:21;;;;;;;2.22;0.70;;;;;;;;;;5001823;28;20042;-58
2022/03/12 02:52:47;;;;;;;1.15;0.40;;;;;;;;;;5001703;28;20132;-57
2022/03/12 02:55:16;;;;;;;3.40;0.77;;;;;;;;;;5002194;28;20544;-57
2022/03/12 02:57:44;;;;;;;5.50;0.75;;;;;;;;;;5005237;28;20048;-57
2022/03/12 03:00:11;;;;;;;7.57;0.80;;;;;;;;;;5005770;28;20038;-56
2022/03/12 03:02:41;;;;;;;3.05;0.70;;;;;;;;;;5003872;28;20053;-59
2022/03/12 03:07:57;;;;;;;4.03;0.60;;;;;;;;;;5001698;28;20952;-55
2022/03/12 03:10:30;;;;;;;2.03;0.60;;;;;;;;;;4999120;28;20035;-57
2022/03/12 03:12:58;;;;;;;2.40;0.68;;;;;;;;;;5000752;28;20038;-57
2022/03/12 03:15:25;;;;;;;1.48;0.57;;;;;;;;;;4998928;28;20116;-56
2022/03/12 03:17:51;;;;;;;1.30;0.50;;;;;;;;;;4998836;28;20038;-58
2022/03/12 03:20:17;;;;;;;2.65;0.77;;;;;;;;;;4997690;28;20083;-55
2022/03/12 03:22:43;;;;;;;2.58;0.60;;;;;;;;;;4998682;28;20046;-56
2022/03/12 03:25:09;;;;;;;4.50;0.77;;;;;;;;;;4997401;28;20046;-55
2022/03/12 03:27:35;;;;;;;4.93;0.73;;;;;;;;;;5026870;28;20038;-59
2022/03/12 03:30:01;;;;;;;5.03;0.70;;;;;;;;;;4996790;28;20670;-56
2022/03/12 03:32:27;;;;;;;1.88;0.50;;;;;;;;;;4995719;28;20038;-57
2022/03/12 03:34:53;;;;;;;5.35;0.80;;;;;;;;;;4996407;28;20124;-58
2022/03/12 03:37:19;;;;;;;2.17;0.60;;;;;;;;;;4996541;28;20093;-58
2022/03/12 03:39:45;;;;;;;1.95;0.60;;;;;;;;;;4995500;28;20064;-57
2022/03/12 03:42:19;;;;;;;2.08;0.70;;;;;;;;;;4998915;28;20531;-56
2022/03/12 03:44:45;;;;;;;1.75;0.60;;;;;;;;;;4982677;28;20042;-57
2022/03/12 03:47:11;;;;;;;4.63;0.93;;;;;;;;;;4997674;28;20041;-57
2022/03/12 03:49:37;;;;;;;3.38;0.70;;;;;;;;;;5026964;28;20034;-56
2022/03/12 03:52:07;;;;;;;2.65;0.85;;;;;;;;;;4996975;28;20041;-58
2022/03/12 03:54:34;;;;;;;2.40;0.80;;;;;;;;;;4996324;28;20049;-58
2022/03/12 03:57:00;;;;;;;1.65;0.65;;;;;;;;;;4997210;28;20038;-56
2022/03/12 03:59:28;;;;;;;2.65;0.75;;;;;;;;;;5026891;28;20038;-57
2022/03/12 04:01:54;;;;;;;3.53;0.80;;;;;;;;;;5005388;28;20057;-58
2022/03/12 04:04:20;;;;;;;3.13;0.80;;;;;;;;;;5004926;28;20040;-58
2022/03/12 04:06:46;;;;;;;2.63;0.73;;;;;;;;;;5013656;28;20054;-58
2022/03/12 04:09:12;;;;;;;3.40;0.75;;;;;;;;;;4998151;28;20060;-57
2022/03/12 04:11:38;;;;;;;3.75;0.77;;;;;;;;;;4994943;28;20839;-58
2022/03/12 04:14:05;;;;;;;4.30;0.55;;;;;;;;;;4995882;28;20069;-58
2022/03/12 04:16:33;;;;;;;7.38;0.90;;;;;;;;;;4993897;28;20136;-57
2022/03/12 04:19:05;;;;;;;2.22;0.70;;;;;;;;;;4996130;28;20092;-57
2022/03/12 04:21:40;;;;;;;1.97;0.63;;;;;;;;;;4995547;28;20247;-57
2022/03/12 04:24:06;;;;;;;2.00;0.60;;;;;;;;;;4999863;28;21166;-57
2022/03/12 04:26:35;;;;;;;1.17;0.50;;;;;;;;;;5001622;28;20403;-57
2022/03/12 04:29:08;;;;;;;1.98;0.43;;;;;;;;;;5005733;28;20854;-57
2022/03/12 04:31:34;;;;;;;2.03;0.50;;;;;;;;;;5001865;28;20042;-54
2022/03/12 04:34:00;;;;;;;1.55;0.60;;;;;;;;;;4998703;28;20073;-56
2022/03/12 04:36:26;;;;;;;2.45;0.60;;;;;;;;;;5003382;28;20606;-58
2022/03/12 04:38:52;;;;;;;3.35;0.88;;;;;;;;;;5003244;28;20045;-56
2022/03/12 04:41:19;;;;;;;2.83;0.77;;;;;;;;;;4999641;28;20038;-58
2022/03/12 04:43:47;;;;;;;4.68;0.77;;;;;;;;;;4998737;28;20053;-57
2022/03/12 04:46:13;;;;;;;1.95;0.50;;;;;;;;;;4999606;28;20033;-57
2022/03/12 04:48:39;;;;;;;3.40;0.80;;;;;;;;;;5000316;28;20033;-58
2022/03/12 04:51:05;;;;;;;1.83;0.60;;;;;;;;;;5000083;28;20831;-57
2022/03/12 04:53:31;;;;;;;3.65;0.65;;;;;;;;;;5006640;28;20037;-58
2022/03/12 04:55:58;;;;;;;2.58;0.75;;;;;;;;;;4998388;28;20501;-58
2022/03/12 04:58:25;;;;;;;1.85;0.60;;;;;;;;;;5031703;28;20077;-56
2022/03/12 05:00:51;;;;;;;1.55;0.55;;;;;;;;;;5001248;28;20064;-56
2022/03/12 05:03:19;;;;;;;5.45;0.77;;;;;;;;;;5002073;28;20073;-57
2022/03/12 05:05:46;;;;;;;2.00;0.55;;;;;;;;;;5002420;28;20044;-58
2022/03/12 05:08:15;;;;;;;1.77;0.60;;;;;;;;;;5006080;28;20069;-57
2022/03/12 05:10:41;;;;;;;1.67;0.60;;;;;;;;;;5006781;28;20109;-57
2022/03/12 05:13:07;;;;;;;1.52;0.50;;;;;;;;;;5014377;28;20098;-55
2022/03/12 05:15:38;;;;;;;1.50;0.50;;;;;;;;;;5016842;28;20163;-57
2022/03/12 05:18:12;;;;;;;1.50;0.50;;;;;;;;;;5002054;28;20184;-59
2022/03/12 05:20:39;;;;;;;2.90;0.60;;;;;;;;;;5001746;28;20048;-57
2022/03/12 05:23:06;;;;;;;2.10;0.60;;;;;;;;;;5001208;28;20053;-58
2022/03/12 05:25:32;;;;;;;1.92;0.57;;;;;;;;;;4999426;28;20113;-57
2022/03/12 05:27:58;;;;;;;5.43;0.80;;;;;;;;;;5002882;28;20082;-57
2022/03/12 05:30:24;;;;;;;1.63;0.50;;;;;;;;;;5003875;28;20042;-54
2022/03/12 05:32:51;;;;;;;12.45;1.20;;;;;;;;;;4996971;28;20042;-58
2022/03/12 05:35:19;;;;;;;1.90;0.68;;;;;;;;;;4998063;28;20042;-57
2022/03/12 05:37:50;;;;;;;1.65;0.52;;;;;;;;;;4998658;28;20038;-58
2022/03/12 05:40:19;;;;;;;2.20;0.80;;;;;;;;;;5000398;28;20373;-55
2022/03/12 05:42:48;;;;;;;1.67;0.60;;;;;;;;;;4998689;28;20058;-56
2022/03/12 05:45:14;;;;;;;1.35;0.43;;;;;;;;;;4998246;28;20034;-57
2022/03/12 05:47:42;;;;;;;3.13;0.80;;;;;;;;;;5002549;28;20045;-58
2022/03/12 05:50:13;;;;;;;7.05;0.82;;;;;;;;;;5000314;28;20045;-58
2022/03/12 05:52:40;;;;;;;2.22;0.60;;;;;;;;;;5001881;28;20054;-57
2022/03/12 05:55:08;;;;;;;2.38;0.70;;;;;;;;;;5001015;28;20339;-58
2022/03/12 05:57:33;;;;;;;3.15;0.80;;;;;;;;;;4999011;28;20094;-58
2022/03/12 06:00:03;;;;;;;2.78;0.70;;;;;;;;;;5001979;28;20120;-58
2022/03/12 06:02:29;;;;;;;1.65;0.50;;;;;;;;;;4999181;28;20046;-56
2022/03/12 06:04:58;;;;;;;2.33;0.70;;;;;;;;;;5000021;28;20097;-58
2022/03/12 06:07:27;;;;;;;5.00;0.70;;;;;;;;;;5028891;28;20528;-58
2022/03/12 06:09:56;;;;;;;3.47;0.75;;;;;;;;;;4999774;28;20065;-58
2022/03/12 06:12:26;;;;;;;2.10;0.75;;;;;;;;;;4997646;28;20104;-58
2022/03/12 06:14:56;;;;;;;2.53;0.82;;;;;;;;;;4996218;28;20537;-57
2022/03/12 06:17:26;;;;;;;5.60;1.27;;;;;;;;;;4997838;28;20117;-57
2022/03/12 06:19:52;;;;;;;5.97;0.98;;;;;;;;;;4996693;28;20038;-57
2022/03/12 06:22:18;;;;;;;2.50;0.60;;;;;;;;;;4997483;28;20100;-58
2022/03/12 06:24:46;;;;;;;3.00;0.70;;;;;;;;;;4998668;28;20033;-57
2022/03/12 06:27:12;;;;;;;3.03;0.70;;;;;;;;;;4996899;28;20054;-58
2022/03/12 06:29:39;;;;;;;5.50;0.60;;;;;;;;;;4997610;28;20042;-57
2022/03/12 06:32:07;;;;;;;1.58;0.57;;;;;;;;;;4997904;28;20818;-57
2022/03/12 06:34:35;;;;;;;1.48;0.52;;;;;;;;;;4997979;28;20425;-57
2022/03/12 06:37:02;;;;;;;1.80;0.60;;;;;;;;;;5012444;28;20049;-57
2022/03/12 06:39:28;;;;;;;2.30;0.70;;;;;;;;;;5012440;28;20507;-58
2022/03/12 06:41:55;;;;;;;1.60;0.50;;;;;;;;;;4998802;28;20064;-57
2022/03/12 06:44:21;;;;;;;2.92;0.68;;;;;;;;;;4997027;28;20048;-58
2022/03/12 06:46:50;;;;;;;3.42;0.80;;;;;;;;;;4996347;28;20459;-57
2022/03/12 06:49:16;;;;;;;3.10;0.75;;;;;;;;;;4999040;28;20037;-58
2022/03/12 06:51:42;;;;;;;2.10;0.70;;;;;;;;;;4997229;28;20045;-57
2022/03/12 06:54:08;;;;;;;6.32;0.80;;;;;;;;;;4996648;28;20041;-58
2022/03/12 06:56:38;;;;;;;1.40;0.60;;;;;;;;;;4997490;28;20558;-54
2022/03/12 06:59:04;;;;;;;2.63;0.70;;;;;;;;;;4998186;28;20108;-57
2022/03/12 07:01:30;;;;;;;2.17;0.70;;;;;;;;;;4996037;28;20190;-55
2022/03/12 07:03:56;;;;;;;2.22;0.60;;;;;;;;;;4998067;28;20065;-57
2022/03/12 07:06:22;;;;;;;7.85;0.80;;;;;;;;;;5011445;28;20371;-57
2022/03/12 07:08:49;;;;;;;3.35;0.60;;;;;;;;;;4997259;28;20038;-57
2022/03/12 07:11:16;;;;;;;2.47;0.60;;;;;;;;;;5002125;28;20216;-58
2022/03/12 07:13:42;;;;;;;4.47;0.55;;;;;;;;;;5002247;28;20489;-59
2022/03/12 07:16:08;;;;;;;2.30;0.70;;;;;;;;;;4995523;28;20150;-55
2022/03/12 07:18:34;;;;;;;2.75;0.68;;;;;;;;;;4998677;28;21113;-58
2022/03/12 07:21:00;;;;;;;2.90;0.80;;;;;;;;;;5000589;28;20053;-57
2022/03/12 07:23:26;;;;;;;6.93;0.90;;;;;;;;;;4994236;28;20057;-58
2022/03/12 07:25:52;;;;;;;2.63;0.68;;;;;;;;;;4997659;28;20034;-58
2022/03/12 07:28:20;;;;;;;3.95;0.50;;;;;;;;;;4997838;28;20053;-58
2022/03/12 07:30:46;;;;;;;2.55;0.70;;;;;;;;;;4998066;28;20062;-57
2022/03/12 07:33:12;;;;;;;4.03;0.60;;;;;;;;;;4996912;28;20038;-58
2022/03/12 07:35:38;;;;;;;1.92;0.52;;;;;;;;;;4995424;28;20119;-57
2022/03/12 07:38:04;;;;;;;2.28;0.60;;;;;;;;;;4997811;28;20114;-57
2022/03/12 07:40:30;;;;;;;1.95;0.68;;;;;;;;;;4995828;28;20038;-58
2022/03/12 07:42:59;;;;;;;1.23;0.50;;;;;;;;;;5029174;28;20143;-59
2022/03/12 07:45:25;;;;;;;1.65;0.60;;;;;;;;;;4997878;28;20387;-57
2022/03/12 07:47:52;;;;;;;3.90;0.70;;;;;;;;;;4996544;28;20061;-56
2022/03/12 07:50:18;;;;;;;2.13;0.63;;;;;;;;;;4998870;28;20039;-56
2022/03/12 07:52:44;;;;;;;3.85;0.65;;;;;;;;;;4996749;28;20038;-57
2022/03/12 07:55:11;;;;;;;1.25;0.50;;;;;;;;;;4997592;28;20097;-55
2022/03/12 07:57:38;;;;;;;1.92;0.57;;;;;;;;;;5000392;28;20034;-57
2022/03/12 08:00:06;;;;;;;1.45;0.50;;;;;;;;;;5002174;28;20060;-58
2022/03/12 08:02:31;;;;;;;2.72;0.60;;;;;;;;;;5000828;28;20096;-57
2022/03/12 08:04:58;;;;;;;1.70;0.55;;;;;;;;;;5003681;28;20042;-57
2022/03/12 08:07:24;;;;;;;2.17;0.57;;;;;;;;;;4999707;28;20048;-57
2022/03/12 08:09:56;;;;;;;1.42;0.50;;;;;;;;;;5001921;28;21066;-58
2022/03/12 08:12:24;;;;;;;1.23;0.47;;;;;;;;;;4999697;28;20068;-56
2022/03/12 08:14:51;;;;;;;1.98;0.50;;;;;;;;;;5000751;28;20070;-57
2022/03/12 08:17:19;;;;;;;3.13;0.50;;;;;;;;;;5002459;28;20073;-57
2022/03/12 08:19:45;;;;;;;2.03;0.60;;;;;;;;;;5005246;28;20050;-57
2022/03/12 08:22:11;;;;;;;2.15;0.60;;;;;;;;;;5003410;28;20048;-56
2022/03/12 08:24:37;;;;;;;1.48;0.57;;;;;;;;;;5001038;28;20046;-57
2022/03/12 08:27:03;;;;;;;2.35;0.63;;;;;;;;;;5001414;28;20046;-57
2022/03/12 08:29:29;;;;;;;1.95;0.57;;;;;;;;;;5032252;28;20038;-56
2022/03/12 08:31:55;;;;;;;1.27;0.50;;;;;;;;;;5003080;28;20041;-57
2022/03/12 08:34:21;;;;;;;5.28;0.50;;;;;;;;;;4998670;28;20040;-55
2022/03/12 08:36:46;;;;;;;1.58;0.60;;;;;;;;;;5000887;28;20054;-58
2022/03/12 08:39:13;;;;;;;1.33;0.50;;;;;;;;;;5002140;28;20314;-58
2022/03/12 08:41:39;;;;;;;3.53;0.50;;;;;;;;;;4999926;28;20038;-58
2022/03/12 08:44:07;;;;;;;1.23;0.40;;;;;;;;;;5000376;28;20038;-57
2022/03/12 08:46:35;;;;;;;0.95;0.43;;;;;;;;;;4999192;28;20046;-57
2022/03/12 08:49:01;;;;;;;1.27;0.63;;;;;;;;;;4999686;28;20037;-56
2022/03/12 08:51:27;;;;;;;0.95;0.40;;;;;;;;;;5001746;28;20519;-58
2022/03/12 08:53:53;;;;;;;4.10;0.55;;;;;;;;;;4999378;28;20037;-56
2022/03/12 08:56:19;;;;;;;6.10;0.70;;;;;;;;;;4997621;28;20078;-57
2022/03/12 08:58:45;;;;;;;0.90;0.40;;;;;;;;;;5001608;28;20046;-57
2022/03/12 09:01:12;;;;;;;0.90;0.47;;;;;;;;;;5000439;28;20038;-57
2022/03/12 09:03:38;;;;;;;1.05;0.45;;;;;;;;;;5000119;28;21854;-57
2022/03/12 09:06:05;;;;;;;1.10;0.40;;;;;;;;;;5001780;28;20038;-57
2022/03/12 09:08:31;;;;;;;0.90;0.40;;;;;;;;;;4999595;28;20129;-58
2022/03/12 09:10:59;;;;;;;0.63;0.38;;;;;;;;;;5000924;28;20057;-58
2022/03/12 09:13:25;;;;;;;1.15;0.40;;;;;;;;;;5001686;28;20037;-56
2022/03/12 09:15:51;;;;;;;2.20;0.60;;;;;;;;;;5000342;28;20049;-58
2022/03/12 09:18:18;;;;;;;1.65;0.45;;;;;;;;;;4997593;28;20042;-56
2022/03/12 09:20:47;;;;;;;1.13;0.40;;;;;;;;;;4999786;28;20045;-55
2022/03/12 09:23:18;;;;;;;1.17;0.50;;;;;;;;;;5013027;28;21024;-57
2022/03/12 09:25:44;;;;;;;1.35;0.55;;;;;;;;;;4998678;28;20519;-58
2022/03/12 09:28:10;;;;;;;1.27;0.50;;;;;;;;;;4999433;28;20057;-57
2022/03/12 09:30:37;;;;;;;1.02;0.43;;;;;;;;;;5000403;28;20144;-56
2022/03/12 09:33:04;;;;;;;1.55;0.50;;;;;;;;;;5000264;28;20041;-57
2022/03/12 09:35:30;;;;;;;1.95;0.50;;;;;;;;;;5002382;28;20150;-57
2022/03/12 09:37:56;;;;;;;1.73;0.55;;;;;;;;;;5003428;28;20106;-57
2022/03/12 09:40:22;;;;;;;5.22;0.70;;;;;;;;;;5003500;28;20112;-58
2022/03/12 09:42:48;;;;;;;1.58;0.40;;;;;;;;;;5000963;28;20049;-57
2022/03/12 09:45:15;;;;;;;1.08;0.40;;;;;;;;;;5003826;28;20045;-57
2022/03/12 09:47:41;;;;;;;1.05;0.40;;;;;;;;;;4998803;28;20058;-57
2022/03/12 09:50:07;;;;;;;0.93;0.40;;;;;;;;;;5001303;28;20042;-57
2022/03/12 09:52:33;;;;;;;2.30;0.50;;;;;;;;;;5001812;28;20046;-58
2022/03/12 09:54:59;;;;;;;2.85;0.57;;;;;;;;;;5001835;28;20030;-58
2022/03/12 09:57:25;;;;;;;1.10;0.40;;;;;;;;;;5029864;28;20041;-58
2022/03/12 09:59:51;;;;;;;0.82;0.35;;;;;;;;;;5012853;28;20097;-56
2022/03/12 10:02:17;;;;;;;1.42;0.50;;;;;;;;;;5007671;28;20043;-57
2022/03/12 10:04:43;;;;;;;2.28;0.60;;;;;;;;;;5000754;28;20034;-58
2022/03/12 10:07:09;;;;;;;1.60;0.50;;;;;;;;;;4998366;28;20057;-57
2022/03/12 10:09:38;;;;;;;1.48;0.60;;;;;;;;;;4999879;28;20929;-57
2022/03/12 10:12:05;;;;;;;1.58;0.45;;;;;;;;;;5000493;28;20053;-58
2022/03/12 10:14:31;;;;;;;1.35;0.50;;;;;;;;;;4999725;28;20045;-58
2022/03/12 10:17:00;;;;;;;1.60;0.50;;;;;;;;;;4997431;28;20041;-57
2022/03/12 10:19:27;;;;;;;1.20;0.50;;;;;;;;;;4996929;28;20499;-57
2022/03/12 10:21:53;;;;;;;1.40;0.40;;;;;;;;;;5000432;28;20042;-58
2022/03/12 10:24:19;;;;;;;1.10;0.47;;;;;;;;;;4998301;28;20038;-57
2022/03/12 10:26:46;;;;;;;4.05;0.70;;;;;;;;;;4998719;28;20049;-58
2022/03/12 10:29:13;;;;;;;1.25;0.47;;;;;;;;;;4998247;28;20054;-57
2022/03/12 10:31:41;;;;;;;2.30;0.50;;;;;;;;;;4990473;28;20540;-56
2022/03/12 10:34:14;;;;;;;1.92;0.50;;;;;;;;;;4997199;28;20038;-58
2022/03/12 10:36:40;;;;;;;1.33;0.50;;;;;;;;;;4995051;28;20069;-58
2022/03/12 10:39:06;;;;;;;1.13;0.52;;;;;;;;;;4997973;28;20065;-57
2022/03/12 10:41:31;;;;;;;1.63;0.52;;;;;;;;;;5000739;28;20125;-58
2022/03/12 10:43:58;;;;;;;1.75;0.60;;;;;;;;;;4998692;28;20041;-57
2022/03/12 10:46:25;;;;;;;1.13;0.50;;;;;;;;;;5001082;28;20101;-58
2022/03/12 10:48:57;;;;;;;1.00;0.40;;;;;;;;;;5001688;28;20452;-56
2022/03/12 10:51:31;;;;;;;1.35;0.50;;;;;;;;;;4999844;28;20074;-59
2022/03/12 10:54:05;;;;;;;1.33;0.50;;;;;;;;;;5001038;28;21812;-57
2022/03/12 10:56:43;;;;;;;1.33;0.55;;;;;;;;;;4998312;28;20038;-56
2022/03/12 10:59:13;;;;;;;1.25;0.47;;;;;;;;;;4999658;28;20038;-58
2022/03/12 11:01:44;;;;;;;1.48;0.52;;;;;;;;;;4997831;28;20408;-57
2022/03/12 11:04:18;;;;;;;1.83;0.60;;;;;;;;;;4997989;28;20045;-56
2022/03/12 11:06:45;;;;;;;2.45;0.50;;;;;;;;;;5030268;28;20046;-56
2022/03/12 11:09:31;;;;;;;2.63;0.60;;;;;;;;;;4998773;28;20555;-57
2022/03/12 11:11:58;;;;;;;1.77;0.50;;;;;;;;;;4998497;28;20169;-57
2022/03/12 11:14:24;;;;;;;2.08;0.50;;;;;;;;;;4997482;28;21677;-56
2022/03/12 11:16:52;;;;;;;1.45;0.50;;;;;;;;;;4998064;28;20046;-57
2022/03/12 11:19:37;;;;;;;1.85;0.50;;;;;;;;;;4996563;28;20116;-57
2022/03/12 11:22:08;;;;;;;2.95;0.50;;;;;;;;;;4999260;28;20073;-58
2022/03/12 11:24:45;;;;;;;1.15;0.40;;;;;;;;;;4995847;28;20041;-57
2022/03/12 11:27:12;;;;;;;1.63;0.50;;;;;;;;;;4998037;28;20545;-56
2022/03/12 11:29:39;;;;;;;4.57;0.50;;;;;;;;;;5001066;28;20484;-57
2022/03/12 11:32:09;;;;;;;1.90;0.50;;;;;;;;;;5000024;28;20057;-57
2022/03/12 11:34:40;;;;;;;2.35;0.45;;;;;;;;;;4999592;28;20053;-57
2022/03/12 11:37:17;;;;;;;1.10;0.43;;;;;;;;;;5000136;28;20046;-58
2022/03/12 11:39:45;;;;;;;1.52;0.55;;;;;;;;;;5000229;28;20050;-57
2022/03/12 11:42:14;;;;;;;0.98;0.40;;;;;;;;;;5000677;28;20049;-58
2022/03/12 11:44:45;;;;;;;1.05;0.40;;;;;;;;;;4999699;28;20065;-57
2022/03/12 11:47:12;;;;;;;0.77;0.40;;;;;;;;;;5000452;28;20124;-55
2022/03/12 11:49:39;;;;;;;0.43;0.40;;;;;;;;;;5001155;28;20037;-58
2022/03/12 11:52:05;;;;;;;1.42;0.40;;;;;;;;;;5018238;28;20125;-57
2022/03/12 11:54:31;;;;;;;0.80;0.40;;;;;;;;;;5000547;28;20515;-57
2022/03/12 11:56:59;;;;;;;2.22;0.60;;;;;;;;;;5034781;28;20575;-55
2022/03/12 11:59:25;;;;;;;0.47;0.30;;;;;;;;;;4998730;28;20041;-57
2022/03/12 12:02:01;;;;;;;0.73;0.40;;;;;;;;;;5002787;28;20482;-58
2022/03/12 12:04:34;;;;;;;1.52;0.45;;;;;;;;;;5001329;28;20050;-58
2022/03/12 12:07:01;;;;;;;1.27;0.47;;;;;;;;;;5002714;28;20057;-57
2022/03/12 12:09:28;;;;;;;0.45;0.30;;;;;;;;;;4999868;28;20038;-57
2022/03/12 12:11:54;;;;;;;0.55;0.35;;;;;;;;;;5002805;28;20061;-57
2022/03/12 12:14:20;;;;;;;1.35;0.40;;;;;;;;;;5002029;28;20042;-57
2022/03/12 12:16:47;;;;;;;1.67;0.50;;;;;;;;;;5002456;28;20111;-57
2022/03/12 12:19:13;;;;;;;1.65;0.43;;;;;;;;;;5002434;28;21636;-56
2022/03/12 12:21:39;;;;;;;0.63;0.40;;;;;;;;;;5000756;28;20060;-59
2022/03/12 12:24:23;;;;;;;0.73;0.38;;;;;;;;;;5013760;28;20049;-56
2022/03/12 12:27:00;;;;;;;0.90;0.40;;;;;;;;;;4997232;28;20041;-56
2022/03/12 12:29:41;;;;;;;1.10;0.40;;;;;;;;;;4998791;28;20446;-57
2022/03/12 12:32:29;;;;;;;0.65;0.30;;;;;;;;;;5032574;28;20060;-58
2022/03/12 12:34:58;;;;;;;1.30;0.40;;;;;;;;;;5035374;28;20036;-58
2022/03/12 12:37:40;;;;;;;1.30;0.50;;;;;;;;;;5033084;28;20051;-57
2022/03/12 12:40:32;;;;;;;1.00;0.40;;;;;;;;;;5033881;28;20091;-57
2022/03/12 12:43:02;;;;;;;0.73;0.40;;;;;;;;;;5014946;28;20160;-55
2022/03/12 12:45:29;;;;;;;1.08;0.40;;;;;;;;;;5023957;28;20772;-58
2022/03/12 12:48:21;;;;;;;1.20;0.40;;;;;;;;;;5041521;28;20067;-57
2022/03/12 12:51:02;;;;;;;0.65;0.35;;;;;;;;;;5010666;28;20457;-57
2022/03/12 12:53:31;;;;;;;1.13;0.50;;;;;;;;;;5015530;28;20786;-56
2022/03/12 12:56:19;;;;;;;0.98;0.40;;;;;;;;;;5017353;28;20144;-57
2022/03/12 12:58:54;;;;;;;0.73;0.40;;;;;;;;;;5024669;28;20032;-58
2022/03/12 13:01:21;;;;;;;2.42;0.50;;;;;;;;;;5015802;28;20037;-57
2022/03/12 13:03:51;;;;;;;1.65;0.50;;;;;;;;;;5015554;28;21112;-58
2022/03/12 13:06:35;;;;;;;1.58;0.50;;;;;;;;;;5014795;28;20409;-57
2022/03/12 13:09:08;;;;;;;1.48;0.50;;;;;;;;;;5011073;28;20049;-57
2022/03/12 13:11:34;;;;;;;0.82;0.43;;;;;;;;;;4979183;28;20061;-55
2022/03/12 13:14:08;;;;;;;1.02;0.40;;;;;;;;;;4979716;28;20046;-57
2022/03/12 13:16:33;;;;;;;;;;;;;;;;;;4979283;28;20041;-57
2022/03/12 13:18:59;;;;;;;1.13;0.40;;;;;;;;;;4986514;28;19917;-54
2022/03/12 13:21:26;;;;;;;1.20;0.40;;;;;;;;;;4977569;28;20756;-57
2022/03/12 13:23:52;;;;;;;0.90;0.40;;;;;;;;;;4979153;28;20058;-56
2022/03/12 13:26:18;;;;;;;0.93;0.40;;;;;;;;;;4998879;28;20038;-55
2022/03/12 13:28:55;;;;;;;2.72;0.60;;;;;;;;;;5002103;28;20563;-57
2022/03/12 13:31:31;;;;;;;1.65;0.50;;;;;;;;;;5038631;28;20044;-57
2022/03/12 13:34:10;;;;;;;1.20;0.40;;;;;;;;;;5011816;28;20037;-55
2022/03/12 13:36:39;;;;;;;1.17;0.40;;;;;;;;;;5041884;28;20060;-57
2022/03/12 13:39:07;;;;;;;1.70;0.52;;;;;;;;;;5002753;28;20042;-57
2022/03/12 13:41:33;;;;;;;1.00;0.40;;;;;;;;;;4998388;28;20059;-58
2022/03/12 13:44:00;;;;;;;3.05;0.57;;;;;;;;;;4999504;28;20081;-55
2022/03/12 13:46:28;;;;;;;1.02;0.40;;;;;;;;;;4998823;28;20168;-57
2022/03/12 13:48:58;;;;;;;1.17;0.40;;;;;;;;;;5000499;28;20038;-57
2022/03/12 13:51:24;;;;;;;1.85;0.50;;;;;;;;;;4997742;28;20042;-56
2022/03/12 13:53:54;;;;;;;1.63;0.50;;;;;;;;;;4998209;28;20039;-57
2022/03/12 13:56:20;;;;;;;1.48;0.50;;;;;;;;;;5001693;28;20562;-56
2022/03/12 13:58:46;;;;;;;8.45;0.70;;;;;;;;;;5001241;28;20691;-56
2022/03/12 14:01:31;;;;;;;0.65;0.35;;;;;;;;;;4999798;28;20048;-56
2022/03/12 14:03:58;;;;;;;0.85;0.40;;;;;;;;;;5000464;28;20057;-56
2022/03/12 14:06:28;;;;;;;2.00;0.60;;;;;;;;;;4997926;28;20139;-56
2022/03/12 14:08:56;;;;;;;1.45;0.40;;;;;;;;;;4999745;28;20044;-57
2022/03/12 14:11:34;;;;;;;1.38;0.40;;;;;;;;;;4999228;28;20045;-56
2022/03/12 14:14:01;;;;;;;2.53;0.50;;;;;;;;;;5004752;28;20574;-57
2022/03/12 14:16:27;;;;;;;9.13;0.60;;;;;;;;;;4999803;28;20042;-56
2022/03/12 14:19:03;;;;;;;2.65;0.63;;;;;;;;;;5003707;28;20062;-56
2022/03/12 14:21:36;;;;;;;3.25;0.85;;;;;;;;;;5008514;28;20054;-56
2022/03/12 14:24:22;;;;;;;0.95;0.40;;;;;;;;;;5001519;28;20057;-57
2022/03/12 14:26:51;;;;;;;5.32;0.50;;;;;;;;;;5002287;28;20041;-57
2022/03/12 14:29:18;;;;;;;1.15;0.40;;;;;;;;;;5000655;28;20818;-56
2022/03/12 14:31:44;;;;;;;1.40;0.50;;;;;;;;;;5004118;28;20053;-57
2022/03/12 14:34:11;;;;;;;3.30;0.68;;;;;;;;;;4998892;28;20096;-61
2022/03/12 14:36:38;;;;;;;1.00;0.40;;;;;;;;;;4998187;28;20038;-60
2022/03/12 14:39:04;;;;;;;5.38;0.57;;;;;;;;;;4999889;28;20691;-57
2022/03/12 14:41:30;;;;;;;1.67;0.50;;;;;;;;;;5000898;28;20038;-58
2022/03/12 14:43:56;;;;;;;4.63;0.50;;;;;;;;;;4997693;28;20172;-58
2022/03/12 14:46:23;;;;;;;1.23;0.40;;;;;;;;;;5008207;28;20034;-58
2022/03/12 14:48:49;;;;;;;2.58;0.40;;;;;;;;;;4999711;28;20070;-57
2022/03/12 14:51:16;;;;;;;1.55;0.50;;;;;;;;;;4998879;28;20377;-57